Red Oak, IA

3:26 AM CST on February 11, 2016 (GMT -0600)
Red Oak Municipal

Weather History for KRDK - April, 2014

Change the Weather History Date:

Thursday, April 17, 2014

  Actual Average (WUND) Record (WUND)
Temperature  
Mean Temperature 44 °F -  
Max Temperature 55 °F - - (-1)
Min Temperature 33 °F - - (-1)
Degree Days  
Heating Degree Days 21    
Moisture  
Dew Point 28 °F    
Average Humidity 63    
Maximum Humidity 81    
Minimum Humidity 33    
Precipitation  
Precipitation 0.00 in - - ()
Sea Level Pressure  
Sea Level Pressure 30.25 in    
Wind  
Wind Speed 11 mph (NNW)    
Max Wind Speed 20 mph    
Max Gust Speed 26 mph    
Visibility 10 miles    
Events      
Averages and records for this station are not official NWS values.
T = Trace of Precipitation, MM = Missing Value Source: NWS Daily Summary

Daily Weather History Graph

Daily Weather History Graph

Search for Another Location

Airport or City:

Trip Planner

Search our weather history database for the weather conditions in past years. The results will help you decide how hot, cold, wet, or windy it might be!

Date:

Astronomy

Apr. 17, 2014 Rise Set
Actual Time 6:38 AM CDT 8:03 PM CDT
Civil Twilight 6:10 AM CDT 8:31 PM CDT
Nautical Twilight 5:35 AM CDT 9:06 PM CDT
Astronomical Twilight 4:59 AM CDT 9:42 PM CDT
Moon 10:50 PM CDT (4/17) 8:10 AM CDT (4/17)
Length of Visible Light 14h 21m
Length of Day
13h 24m
Waning Gibbous, 93% of the Moon is Illuminated
Apr 17
Waning Gibbous
Apr 22
Last Quarter
Apr 29
New
May 6
First Quarter
May 14
Full

Hourly Weather History & Observations

Time (CDT) Temp. Windchill Dew Point Humidity Pressure Visibility Wind Dir Wind Speed Gust Speed Precip Events Conditions
12:15 AM 37.4 °F 28.9 °F 30.2 °F 75% 30.09 in 10.0 mi NW 13.8 mph 21.9 mph N/A   Overcast
12:35 AM 35.6 °F 25.9 °F 30.2 °F 81% 30.09 in 10.0 mi NW 16.1 mph 25.3 mph N/A   Overcast
12:55 AM 35.6 °F 25.2 °F 30.2 °F 81% 30.10 in 10.0 mi NW 18.4 mph - N/A   Overcast
1:15 AM 35.6 °F 25.5 °F 30.2 °F 81% 30.10 in 10.0 mi NNW 17.3 mph 26.5 mph N/A   Overcast
1:35 AM 35.6 °F 24.8 °F 30.2 °F 81% 30.12 in 10.0 mi NNW 19.6 mph - N/A   Overcast
1:55 AM 35.6 °F 25.9 °F 30.2 °F 81% 30.13 in 10.0 mi NW 16.1 mph - N/A   Overcast
2:15 AM 35.6 °F 27.1 °F 30.2 °F 81% 30.13 in 10.0 mi NW 12.7 mph 24.2 mph N/A   Overcast
2:35 AM 35.6 °F 26.2 °F 30.2 °F 81% 30.13 in 10.0 mi NW 15.0 mph 21.9 mph N/A   Overcast
2:55 AM 35.6 °F 25.9 °F 28.4 °F 75% 30.14 in 10.0 mi NNW 16.1 mph - N/A   Overcast
3:15 AM 33.8 °F 24.8 °F 28.4 °F 81% 30.16 in 10.0 mi NNW 12.7 mph 21.9 mph N/A   Overcast
3:35 AM 33.8 °F 24.8 °F 28.4 °F 81% 30.17 in 10.0 mi NW 12.7 mph - N/A   Overcast
3:55 AM 33.8 °F 25.3 °F 28.4 °F 81% 30.18 in 10.0 mi NNW 11.5 mph 18.4 mph N/A   Overcast
4:15 AM 33.8 °F 25.3 °F 28.4 °F 81% 30.20 in 10.0 mi NNW 11.5 mph - N/A   Overcast
4:35 AM 33.8 °F 23.9 °F 28.4 °F 81% 30.21 in 10.0 mi NNW 15.0 mph - N/A   Overcast
4:55 AM 33.8 °F 25.3 °F 28.4 °F 81% 30.21 in 10.0 mi NNW 11.5 mph - N/A   Overcast
5:15 AM 33.8 °F 24.3 °F 28.4 °F 81% 30.22 in 10.0 mi North 13.8 mph - N/A   Overcast
5:35 AM 33.8 °F 26.4 °F 28.4 °F 81% 30.22 in 10.0 mi NNW 9.2 mph - N/A   Overcast
5:55 AM 33.8 °F 26.4 °F 28.4 °F 81% 30.23 in 10.0 mi North 9.2 mph - N/A   Overcast
6:15 AM 33.8 °F 25.3 °F 26.6 °F 75% 30.23 in 10.0 mi NNW 11.5 mph - N/A   Overcast
6:35 AM 33.8 °F 24.3 °F 26.6 °F 75% 30.24 in 10.0 mi NNW 13.8 mph - N/A   Overcast
6:55 AM 33.8 °F 24.8 °F 26.6 °F 75% 30.25 in 10.0 mi NNW 12.7 mph - N/A   Overcast
7:15 AM 33.8 °F 25.3 °F 26.6 °F 75% 30.26 in 10.0 mi NNW 11.5 mph - N/A   Overcast
7:35 AM 33.8 °F 23.9 °F 26.6 °F 75% 30.27 in 10.0 mi North 15.0 mph - N/A   Overcast
7:55 AM 33.8 °F 25.3 °F 26.6 °F 75% 30.28 in 10.0 mi North 11.5 mph - N/A   Overcast
8:15 AM 33.8 °F 26.4 °F 26.6 °F 75% 30.28 in 10.0 mi North 9.2 mph 15.0 mph N/A   Overcast
8:35 AM 33.8 °F 24.8 °F 26.6 °F 75% 30.28 in 10.0 mi NNW 12.7 mph - N/A   Overcast
8:55 AM 33.8 °F 24.8 °F 26.6 °F 75% 30.30 in 10.0 mi North 12.7 mph - N/A   Overcast
9:15 AM 33.8 °F 24.8 °F 26.6 °F 75% 30.31 in 10.0 mi North 12.7 mph 18.4 mph N/A   Overcast
9:35 AM 33.8 °F 25.3 °F 26.6 °F 75% 30.32 in 10.0 mi North 11.5 mph - N/A   Overcast
9:55 AM 33.8 °F 27.7 °F 26.6 °F 75% 30.33 in 10.0 mi Variable 6.9 mph 15.0 mph N/A   Overcast
10:15 AM 35.6 °F 29.2 °F 26.6 °F 70% 30.34 in 10.0 mi North 8.1 mph - N/A   Overcast
10:35 AM 35.6 °F 28.0 °F 26.6 °F 70% 30.34 in 10.0 mi North 10.4 mph - N/A   Overcast
10:55 AM 35.6 °F 28.0 °F 26.6 °F 70% 30.34 in 10.0 mi NW 10.4 mph - N/A   Overcast
11:15 AM 37.4 °F 32.1 °F 26.6 °F 65% 30.34 in 10.0 mi North 6.9 mph 13.8 mph N/A   Overcast
11:35 AM 39.2 °F 33.0 °F 28.4 °F 65% 30.33 in 10.0 mi North 9.2 mph - N/A   Mostly Cloudy
11:55 AM 41.0 °F 35.2 °F 28.4 °F 61% 30.33 in 10.0 mi NNW 9.2 mph - N/A   Partly Cloudy
12:15 PM 41.0 °F 38.0 °F 28.4 °F 61% 30.32 in 10.0 mi NNW 4.6 mph 15.0 mph N/A   Clear
12:35 PM 42.8 °F 38.6 °F 28.4 °F 57% 30.31 in 10.0 mi Variable 6.9 mph 16.1 mph N/A   Clear
12:55 PM 44.6 °F 40.2 °F 28.4 °F 53% 30.30 in 10.0 mi NNW 8.1 mph 13.8 mph N/A   Clear
1:15 PM 46.4 °F 41.5 °F 30.2 °F 53% 30.30 in 10.0 mi North 10.4 mph - N/A   Clear
1:35 PM 46.4 °F 41.5 °F 28.4 °F 50% 30.29 in 10.0 mi North 10.4 mph - N/A   Clear
1:55 PM 48.2 °F - 28.4 °F 46% 30.28 in 10.0 mi North 9.2 mph 15.0 mph N/A   Clear
2:15 PM 50.0 °F - 28.4 °F 43% 30.28 in 10.0 mi NE 9.2 mph 15.0 mph N/A   Clear
2:35 PM 50.0 °F - 28.4 °F 43% 30.28 in 10.0 mi NNE 8.1 mph 13.8 mph N/A   Clear
2:55 PM 51.8 °F - 30.2 °F 44% 30.28 in 10.0 mi Variable 5.8 mph - N/A   Clear
3:15 PM 51.8 °F - 30.2 °F 44% 30.27 in 10.0 mi Variable 4.6 mph 11.5 mph N/A   Clear
3:35 PM 51.8 °F - 30.2 °F 44% 30.27 in 10.0 mi Variable 4.6 mph 13.8 mph N/A   Clear
3:55 PM 53.6 °F - 28.4 °F 38% 30.26 in 10.0 mi NNW 5.8 mph 11.5 mph N/A   Clear
4:15 PM 53.6 °F - 28.4 °F 38% 30.25 in 10.0 mi NNE 6.9 mph - N/A   Clear
4:35 PM 53.6 °F - 28.4 °F 38% 30.25 in 10.0 mi Variable 3.5 mph - N/A   Clear
4:55 PM 53.6 °F - 28.4 °F 38% 30.25 in 10.0 mi NNE 8.1 mph - N/A   Clear
5:15 PM 55.4 °F - 26.6 °F 33% 30.24 in 10.0 mi Calm Calm - N/A   Clear
5:35 PM 55.4 °F - 28.4 °F 36% 30.25 in 10.0 mi East 5.8 mph - N/A   Clear
5:55 PM 53.6 °F - 26.6 °F 35% 30.24 in 10.0 mi Calm Calm - N/A   Clear
6:15 PM 55.4 °F - 26.6 °F 33% 30.24 in 10.0 mi ENE 4.6 mph - N/A   Clear
6:35 PM 53.6 °F - 26.6 °F 35% 30.24 in 10.0 mi Calm Calm - N/A   Clear
6:55 PM 55.4 °F - 26.6 °F 33% 30.24 in 10.0 mi Calm Calm - N/A   Clear
7:15 PM 53.6 °F - 28.4 °F 38% 30.25 in 10.0 mi NE 3.5 mph - N/A   Clear
7:35 PM 53.6 °F - 28.4 °F 38% 30.24 in 10.0 mi Calm Calm - N/A   Clear
7:55 PM 51.8 °F - 28.4 °F 41% 30.25 in 10.0 mi Calm Calm - N/A   Clear
8:15 PM 48.2 °F - 28.4 °F 46% 30.25 in 10.0 mi Calm Calm - N/A   Clear
8:35 PM 44.6 °F - 28.4 °F 53% 30.26 in 10.0 mi Calm Calm - N/A   Clear
8:55 PM 42.8 °F - 30.2 °F 61% 30.26 in 10.0 mi Calm Calm - N/A   Clear
9:15 PM 39.2 °F - 28.4 °F 65% 30.27 in 10.0 mi Calm Calm - N/A   Clear
9:35 PM 37.4 °F - 30.2 °F 75% 30.27 in 9.0 mi Calm Calm - N/A   Clear
9:55 PM 39.2 °F - 30.2 °F 70% 30.27 in 9.0 mi Calm Calm - N/A   Clear
10:15 PM 37.4 °F - 30.2 °F 75% 30.27 in 10.0 mi Calm Calm - N/A   Clear
10:35 PM 37.4 °F - 28.4 °F 70% 30.27 in 10.0 mi Calm Calm - N/A   Clear
10:55 PM 37.4 °F - 28.4 °F 70% 30.27 in 10.0 mi Calm Calm - N/A   Clear
11:15 PM 35.6 °F - 28.4 °F 75% 30.27 in 9.0 mi Calm Calm - N/A   Clear
11:35 PM 35.6 °F - 28.4 °F 75% 30.27 in 10.0 mi Calm Calm - N/A   Clear
11:55 PM 35.6 °F - 28.4 °F 75% 30.27 in 10.0 mi Calm Calm - N/A   Clear